Time;durP1;ratioP1;P1;durP2;ratioP2;P2;SDS_P1;SDS_P2;PMS_P1;PMS_P2;Temp;Humidity;BMP_temperature;BMP_pressure;BME280_temperature;BME280_humidity;BME280_pressure;Samples;Min_cycle;Max_cycle;Signal;HPM_P1;HPM_P2
2022/09/04 00:01:15;;;;;;;7.63;3.67;;;;;;;;;;5051149;28;20075;-64
2022/09/04 00:03:44;;;;;;;6.00;3.30;;;;;;;;;;4950686;29;20565;-64
2022/09/04 00:06:14;;;;;;;4.32;2.78;;;;;;;;;;5031526;28;20036;-64
2022/09/04 00:08:39;;;;;;;;;;;;;;;;;;5051375;28;20421;-64
2022/09/04 00:11:07;;;;;;;5.95;3.08;;;;;;;;;;5050832;28;19904;-63
2022/09/04 00:13:37;;;;;;;4.43;3.13;;;;;;;;;;5050766;28;20021;-64
2022/09/04 00:16:08;;;;;;;6.28;3.28;;;;;;;;;;5050465;28;20021;-64
2022/09/04 00:18:45;;;;;;;5.97;3.28;;;;;;;;;;5074688;22;20040;-67
2022/09/04 00:21:20;;;;;;;5.50;3.30;;;;;;;;;;5090780;28;20016;-68
2022/09/04 00:23:57;;;;;;;8.52;3.60;;;;;;;;;;5090781;28;20028;-67
2022/09/04 00:26:37;;;;;;;5.55;3.47;;;;;;;;;;5090517;28;20020;-67
2022/09/04 00:29:06;;;;;;;5.05;2.97;;;;;;;;;;5090613;28;20047;-67
2022/09/04 00:31:37;;;;;;;5.57;3.33;;;;;;;;;;5090709;28;20030;-67
2022/09/04 00:34:17;;;;;;;4.32;3.30;;;;;;;;;;5090765;28;20040;-67
2022/09/04 00:36:44;;;;;;;4.82;3.20;;;;;;;;;;5091020;28;20026;-67
2022/09/04 00:39:27;;;;;;;5.18;3.55;;;;;;;;;;5090567;28;20074;-67
2022/09/04 00:42:12;;;;;;;3.90;2.72;;;;;;;;;;5090881;28;20020;-67
2022/09/04 00:44:51;;;;;;;4.00;2.88;;;;;;;;;;5090589;28;20529;-67
2022/09/04 00:47:47;;;;;;;4.93;3.30;;;;;;;;;;5090359;28;20379;-67
2022/09/04 00:50:22;;;;;;;3.67;3.03;;;;;;;;;;5069013;28;20024;-67
2022/09/04 00:52:53;;;;;;;6.63;3.63;;;;;;;;;;5090551;28;20027;-67
2022/09/04 00:55:37;;;;;;;6.63;3.22;;;;;;;;;;5090114;28;20077;-68
2022/09/04 00:58:15;;;;;;;4.95;3.53;;;;;;;;;;5090070;28;20020;-67
2022/09/04 01:00:41;;;;;;;8.60;2.72;;;;;;;;;;5089791;28;20020;-69
2022/09/04 01:03:06;;;;;;;5.15;3.17;;;;;;;;;;5089491;28;20031;-67
2022/09/04 01:05:50;;;;;;;4.40;3.33;;;;;;;;;;5090316;28;20388;-68
2022/09/04 01:08:34;;;;;;;5.05;3.38;;;;;;;;;;5090231;28;20035;-67
2022/09/04 01:10:59;;;;;;;6.15;3.22;;;;;;;;;;5090072;28;20106;-67
2022/09/04 01:13:43;;;;;;;5.40;2.95;;;;;;;;;;5090179;28;20460;-67
2022/09/04 01:16:16;;;;;;;5.03;3.13;;;;;;;;;;5089787;28;20038;-68
2022/09/04 01:19:00;;;;;;;5.55;3.67;;;;;;;;;;5090168;28;20024;-67
2022/09/04 01:21:44;;;;;;;6.47;3.28;;;;;;;;;;5090406;28;20528;-67
2022/09/04 01:24:20;;;;;;;5.75;3.58;;;;;;;;;;5090910;28;20062;-67
2022/09/04 01:26:48;;;;;;;7.53;3.42;;;;;;;;;;5090512;28;20024;-67
2022/09/04 01:29:40;;;;;;;7.57;3.65;;;;;;;;;;5089832;28;20464;-66
2022/09/04 01:32:13;;;;;;;3.60;2.97;;;;;;;;;;5090076;28;20028;-68
2022/09/04 01:34:44;;;;;;;4.85;3.58;;;;;;;;;;5090121;28;20490;-67
2022/09/04 01:37:18;;;;;;;4.18;3.20;;;;;;;;;;5089992;28;20032;-68
2022/09/04 01:39:45;;;;;;;6.35;3.25;;;;;;;;;;5093823;28;20020;-67
2022/09/04 01:42:18;;;;;;;8.30;3.35;;;;;;;;;;5093669;28;20464;-67
2022/09/04 01:44:43;;;;;;;3.85;3.00;;;;;;;;;;5094241;28;20028;-67
2022/09/04 01:47:27;;;;;;;5.55;3.17;;;;;;;;;;5093491;28;20023;-67
2022/09/04 01:49:56;;;;;;;5.53;3.15;;;;;;;;;;5093872;28;20053;-67
2022/09/04 01:52:21;;;;;;;8.83;3.50;;;;;;;;;;5093018;28;20111;-68
2022/09/04 01:55:07;;;;;;;5.10;3.55;;;;;;;;;;5093343;28;20197;-67
2022/09/04 01:57:32;;;;;;;4.10;2.97;;;;;;;;;;5093479;28;20012;-67
2022/09/04 02:00:03;;;;;;;4.55;2.85;;;;;;;;;;5093729;28;20407;-66
2022/09/04 02:02:46;;;;;;;4.93;3.55;;;;;;;;;;5093687;28;20024;-67
2022/09/04 02:05:27;;;;;;;4.53;3.00;;;;;;;;;;5093227;28;20476;-67
2022/09/04 02:08:11;;;;;;;5.28;3.35;;;;;;;;;;5093542;28;20108;-65
2022/09/04 02:10:46;;;;;;;4.68;3.35;;;;;;;;;;5093531;28;20147;-66
2022/09/04 02:13:16;;;;;;;11.50;3.95;;;;;;;;;;5093365;28;20069;-65
2022/09/04 02:15:44;;;;;;;6.38;4.03;;;;;;;;;;5093130;28;20012;-65
2022/09/04 02:18:10;;;;;;;6.25;3.22;;;;;;;;;;5092897;28;20016;-64
2022/09/04 02:20:36;;;;;;;6.10;3.45;;;;;;;;;;5093352;28;20129;-65
2022/09/04 02:23:10;;;;;;;5.78;3.65;;;;;;;;;;5093157;28;20085;-65
2022/09/04 02:25:52;;;;;;;4.95;3.50;;;;;;;;;;5092901;28;20023;-65
2022/09/04 02:28:20;;;;;;;7.05;4.40;;;;;;;;;;5092817;28;20407;-66
2022/09/04 02:30:52;;;;;;;6.03;4.10;;;;;;;;;;5092893;28;20073;-66
2022/09/04 02:33:23;;;;;;;6.38;3.90;;;;;;;;;;5092758;28;20057;-65
2022/09/04 02:35:57;;;;;;;9.52;4.35;;;;;;;;;;5092828;28;20073;-65
2022/09/04 02:38:50;;;;;;;6.63;3.40;;;;;;;;;;5092543;28;20020;-65
2022/09/04 02:41:18;;;;;;;4.45;3.35;;;;;;;;;;5088022;28;20472;-65
2022/09/04 02:43:43;;;;;;;5.50;3.72;;;;;;;;;;5092628;28;20028;-65
2022/09/04 02:46:14;;;;;;;7.60;3.92;;;;;;;;;;5092436;28;20617;-65
2022/09/04 02:48:46;;;;;;;7.07;3.90;;;;;;;;;;5092003;28;20071;-65
2022/09/04 02:51:30;;;;;;;6.28;4.00;;;;;;;;;;5091858;28;20100;-65
2022/09/04 02:54:05;;;;;;;5.72;3.60;;;;;;;;;;5092949;28;20020;-65
2022/09/04 02:56:40;;;;;;;5.82;3.95;;;;;;;;;;5092347;28;20052;-65
2022/09/04 02:59:14;;;;;;;6.18;4.32;;;;;;;;;;5092492;28;20063;-64
2022/09/04 03:01:42;;;;;;;5.30;3.67;;;;;;;;;;5092592;28;20537;-65
2022/09/04 03:04:11;;;;;;;5.32;3.78;;;;;;;;;;5092166;28;20031;-65
2022/09/04 03:06:48;;;;;;;6.45;3.55;;;;;;;;;;5092118;28;20055;-65
2022/09/04 03:09:17;;;;;;;5.78;3.80;;;;;;;;;;5091813;28;20099;-65
2022/09/04 03:11:47;;;;;;;6.93;4.15;;;;;;;;;;5092218;28;20027;-65
2022/09/04 03:14:17;;;;;;;6.22;4.07;;;;;;;;;;5091898;28;20024;-66
2022/09/04 03:16:46;;;;;;;5.95;4.15;;;;;;;;;;5092123;28;20044;-65
2022/09/04 03:19:14;;;;;;;5.93;3.88;;;;;;;;;;5092127;28;20043;-65
2022/09/04 03:21:40;;;;;;;7.20;3.65;;;;;;;;;;5091886;28;20019;-65
2022/09/04 03:24:12;;;;;;;6.97;3.63;;;;;;;;;;5092201;28;20012;-66
2022/09/04 03:26:47;;;;;;;6.63;3.05;;;;;;;;;;5091612;28;20028;-65
2022/09/04 03:29:47;;;;;;;5.75;3.03;;;;;;;;;;5091595;28;20051;-65
2022/09/04 03:32:12;;;;;;;5.57;3.53;;;;;;;;;;4989567;28;20113;-65
2022/09/04 03:34:46;;;;;;;10.38;3.67;;;;;;;;;;5070169;28;20107;-65
2022/09/04 03:37:26;;;;;;;6.07;3.90;;;;;;;;;;5091567;28;20064;-65
2022/09/04 03:39:52;;;;;;;6.28;3.65;;;;;;;;;;5091454;28;20490;-65
2022/09/04 03:42:24;;;;;;;6.45;3.50;;;;;;;;;;5091704;28;20186;-65
2022/09/04 03:44:55;;;;;;;7.18;3.80;;;;;;;;;;5091730;28;20119;-66
2022/09/04 03:47:29;;;;;;;8.80;3.72;;;;;;;;;;5091098;28;20031;-65
2022/09/04 03:50:06;;;;;;;9.48;4.72;;;;;;;;;;5091589;28;20643;-65
2022/09/04 03:52:49;;;;;;;8.15;3.63;;;;;;;;;;5091310;28;20024;-65
2022/09/04 03:55:33;;;;;;;5.22;3.47;;;;;;;;;;5091126;28;20016;-67
2022/09/04 03:57:58;;;;;;;5.43;3.85;;;;;;;;;;5091174;28;20028;-68
2022/09/04 04:00:24;;;;;;;6.43;3.40;;;;;;;;;;5090820;28;20020;-67
2022/09/04 04:03:00;;;;;;;6.65;4.07;;;;;;;;;;5091225;28;20301;-65
2022/09/04 04:05:39;;;;;;;7.70;3.60;;;;;;;;;;5090742;28;20107;-65
2022/09/04 04:08:22;;;;;;;4.88;3.20;;;;;;;;;;5091286;28;20473;-65
2022/09/04 04:10:51;;;;;;;7.80;3.35;;;;;;;;;;5091061;28;20028;-65
2022/09/04 04:13:35;;;;;;;11.25;4.00;;;;;;;;;;5090924;28;20026;-68
2022/09/04 04:16:18;;;;;;;6.80;4.05;;;;;;;;;;5091011;28;20087;-68
2022/09/04 04:18:53;;;;;;;5.93;3.70;;;;;;;;;;5090833;28;20039;-68
2022/09/04 04:21:26;;;;;;;7.65;3.80;;;;;;;;;;5090964;28;20031;-68
2022/09/04 04:24:15;;;;;;;5.70;3.78;;;;;;;;;;5090946;28;20480;-66
2022/09/04 04:26:40;;;;;;;5.82;3.70;;;;;;;;;;5090231;28;20016;-65
2022/09/04 04:29:14;;;;;;;6.67;3.83;;;;;;;;;;5090775;28;20088;-67
2022/09/04 04:31:39;;;;;;;8.65;4.32;;;;;;;;;;5090352;28;20334;-66
2022/09/04 04:34:09;;;;;;;10.13;3.77;;;;;;;;;;5090732;28;20453;-65
2022/09/04 04:36:46;;;;;;;6.22;3.85;;;;;;;;;;5090243;28;20250;-65
2022/09/04 04:39:11;;;;;;;6.43;4.28;;;;;;;;;;5090742;28;20365;-66
2022/09/04 04:42:04;;;;;;;6.30;4.13;;;;;;;;;;5090584;28;20023;-65
2022/09/04 04:47:48;;;;;;;8.00;4.25;;;;;;;;;;5007944;28;20153;-66
2022/09/04 04:50:19;;;;;;;6.63;4.13;;;;;;;;;;5072878;28;20111;-65
2022/09/04 04:52:44;;;;;;;;;;;;;;;;;;5090792;28;20472;-65
2022/09/04 04:55:14;;;;;;;4.77;4.07;;;;;;;;;;5090280;28;19908;-66
2022/09/04 04:57:45;;;;;;;12.18;4.10;;;;;;;;;;5090417;28;20250;-64
2022/09/04 05:00:18;;;;;;;6.53;4.68;;;;;;;;;;5090454;28;20495;-65
2022/09/04 05:02:50;;;;;;;7.15;4.18;;;;;;;;;;5090133;28;20062;-65
2022/09/04 05:05:42;;;;;;;8.45;4.78;;;;;;;;;;5090425;28;20069;-64
2022/09/04 05:08:13;;;;;;;8.18;4.80;;;;;;;;;;5090034;28;20028;-65
2022/09/04 05:10:41;;;;;;;6.80;4.47;;;;;;;;;;5090223;28;20097;-66
2022/09/04 05:13:23;;;;;;;10.80;4.05;;;;;;;;;;5091971;28;20024;-67
2022/09/04 05:15:50;;;;;;;6.63;4.15;;;;;;;;;;5094264;28;20028;-65
2022/09/04 05:18:24;;;;;;;5.18;4.03;;;;;;;;;;5094364;28;20009;-65
2022/09/04 05:20:54;;;;;;;6.28;4.40;;;;;;;;;;5094299;28;20016;-66
2022/09/04 05:23:37;;;;;;;8.80;4.78;;;;;;;;;;5094151;28;20015;-66
2022/09/04 05:26:11;;;;;;;9.85;4.70;;;;;;;;;;5093634;28;20027;-65
2022/09/04 05:28:47;;;;;;;6.28;4.38;;;;;;;;;;5094236;28;20024;-65
2022/09/04 05:31:27;;;;;;;8.68;4.57;;;;;;;;;;5093946;28;20055;-65
2022/09/04 05:33:52;;;;;;;;;;;;;;;;;;5094191;28;20488;-68
2022/09/04 05:36:23;;;;;;;5.53;4.03;;;;;;;;;;5093674;28;20535;-65
2022/09/04 05:38:59;;;;;;;5.97;4.53;;;;;;;;;;5093779;28;20178;-64
2022/09/04 05:41:42;;;;;;;6.10;4.78;;;;;;;;;;5093856;28;20008;-65
2022/09/04 05:44:18;;;;;;;7.00;4.95;;;;;;;;;;5093585;28;20025;-69
2022/09/04 05:47:04;;;;;;;6.30;4.53;;;;;;;;;;5093741;28;20020;-65
2022/09/04 05:49:41;;;;;;;6.18;4.10;;;;;;;;;;5076070;28;20538;-65
2022/09/04 05:52:45;;;;;;;5.65;3.95;;;;;;;;;;5093250;28;20115;-65
2022/09/04 05:55:21;;;;;;;6.63;4.50;;;;;;;;;;4991320;28;20106;-65
2022/09/04 05:57:58;;;;;;;6.88;4.85;;;;;;;;;;4991706;28;20467;-65
2022/09/04 06:00:26;;;;;;;6.00;4.03;;;;;;;;;;5053612;28;20085;-65
2022/09/04 06:03:12;;;;;;;8.07;4.28;;;;;;;;;;5093855;28;20468;-65
2022/09/04 06:05:53;;;;;;;7.13;4.50;;;;;;;;;;5093289;28;20111;-65
2022/09/04 06:08:24;;;;;;;7.65;4.43;;;;;;;;;;5093275;28;20028;-65
2022/09/04 06:10:49;;;;;;;5.55;4.05;;;;;;;;;;5093192;28;20080;-66
2022/09/04 06:13:27;;;;;;;4.85;4.20;;;;;;;;;;5093247;28;20024;-65
2022/09/04 06:15:52;;;;;;;6.85;4.05;;;;;;;;;;5092998;28;20467;-66
2022/09/04 06:18:18;;;;;;;6.75;4.35;;;;;;;;;;5102255;22;20539;-85
2022/09/04 06:21:06;;;;;;;7.23;4.60;;;;;;;;;;5090124;28;20024;-86
2022/09/04 06:23:46;;;;;;;5.70;3.88;;;;;;;;;;5072900;28;20277;-86
2022/09/04 06:26:20;;;;;;;5.72;3.85;;;;;;;;;;5091032;28;20052;-87
2022/09/04 06:29:01;;;;;;;5.32;4.05;;;;;;;;;;5091567;28;20020;-88
2022/09/04 06:31:42;;;;;;;5.80;3.88;;;;;;;;;;5091950;28;20024;-86
2022/09/04 06:34:10;;;;;;;6.38;3.80;;;;;;;;;;5091291;28;20024;-87
2022/09/04 06:36:39;;;;;;;6.13;3.80;;;;;;;;;;5072244;28;20016;-87
2022/09/04 06:39:16;;;;;;;9.00;3.80;;;;;;;;;;5072830;28;20069;-87
2022/09/04 06:42:00;;;;;;;4.63;3.83;;;;;;;;;;5091080;28;20040;-87
2022/09/04 06:44:37;;;;;;;7.38;3.42;;;;;;;;;;5073134;28;20016;-86
2022/09/04 06:47:08;;;;;;;3.72;3.00;;;;;;;;;;5090457;28;20471;-86
2022/09/04 06:49:43;;;;;;;4.50;3.25;;;;;;;;;;5072945;28;20047;-86
2022/09/04 06:52:08;;;;;;;5.05;3.25;;;;;;;;;;5090790;28;20024;-86
2022/09/04 06:54:43;;;;;;;4.13;3.13;;;;;;;;;;5090588;28;20034;-86
2022/09/04 06:57:27;;;;;;;5.20;3.10;;;;;;;;;;5090179;28;20074;-86
2022/09/04 07:00:02;;;;;;;3.20;2.58;;;;;;;;;;5072617;28;20628;-87
2022/09/04 07:02:37;;;;;;;5.45;3.13;;;;;;;;;;5090928;28;20099;-86
2022/09/04 07:05:21;;;;;;;3.28;2.55;;;;;;;;;;5090516;28;20031;-85
2022/09/04 07:07:46;;;;;;;5.15;2.83;;;;;;;;;;5072229;28;20016;-87
2022/09/04 07:10:14;;;;;;;5.97;3.00;;;;;;;;;;5072410;28;20024;-86
2022/09/04 07:12:58;;;;;;;4.97;2.60;;;;;;;;;;5090232;28;20024;-85
2022/09/04 07:15:41;;;;;;;4.18;2.65;;;;;;;;;;5090286;28;20008;-86
2022/09/04 07:18:06;;;;;;;5.60;2.85;;;;;;;;;;5071563;28;20016;-86
2022/09/04 07:20:55;;;;;;;3.10;2.47;;;;;;;;;;5090526;28;20043;-86
2022/09/04 07:23:38;;;;;;;8.52;2.72;;;;;;;;;;5089559;28;20102;-89
2022/09/04 07:26:12;;;;;;;3.28;2.05;;;;;;;;;;5071223;28;20020;-87
2022/09/04 07:28:55;;;;;;;7.00;2.63;;;;;;;;;;5072379;28;20023;-86
2022/09/04 07:31:21;;;;;;;3.38;2.60;;;;;;;;;;5071836;28;20024;-87
2022/09/04 07:34:00;;;;;;;2.93;2.00;;;;;;;;;;5090447;28;20357;-89
2022/09/04 07:36:38;;;;;;;2.88;1.88;;;;;;;;;;5070827;28;20488;-85
2022/09/04 07:39:09;;;;;;;2.03;1.80;;;;;;;;;;5071446;28;20024;-87
2022/09/04 07:41:43;;;;;;;4.57;1.85;;;;;;;;;;5072095;28;20020;-87
2022/09/04 07:44:13;;;;;;;2.15;1.55;;;;;;;;;;5089485;28;20023;-85
2022/09/04 07:46:47;;;;;;;3.47;2.17;;;;;;;;;;5071343;28;20411;-87
2022/09/04 07:49:31;;;;;;;4.57;2.25;;;;;;;;;;5089585;28;20024;-88
2022/09/04 07:51:59;;;;;;;4.90;2.47;;;;;;;;;;5089491;28;20020;-88
2022/09/04 07:54:32;;;;;;;1.83;1.70;;;;;;;;;;5071575;28;20016;-86
2022/09/04 07:57:22;;;;;;;4.28;2.45;;;;;;;;;;5088755;28;20074;-89
2022/09/04 07:59:57;;;;;;;3.63;1.90;;;;;;;;;;5089676;28;20031;-89
2022/09/04 08:02:41;;;;;;;3.70;2.10;;;;;;;;;;5071456;28;20016;-88
2022/09/04 08:05:21;;;;;;;2.67;1.95;;;;;;;;;;5071078;28;20396;-90
2022/09/04 08:08:06;;;;;;;2.58;1.63;;;;;;;;;;5071655;28;20051;-87
2022/09/04 08:10:50;;;;;;;2.65;1.52;;;;;;;;;;5089338;28;20487;-88
2022/09/04 08:13:32;;;;;;;2.88;1.85;;;;;;;;;;5071115;28;20016;-88
2022/09/04 08:16:10;;;;;;;3.03;1.98;;;;;;;;;;5070362;28;20369;-87
2022/09/04 08:18:52;;;;;;;4.93;1.90;;;;;;;;;;5070832;28;20025;-88
2022/09/04 08:21:24;;;;;;;4.28;2.13;;;;;;;;;;5089054;28;20025;-86
2022/09/04 08:24:08;;;;;;;5.65;2.08;;;;;;;;;;5071223;28;20020;-87
2022/09/04 08:26:33;;;;;;;2.75;1.88;;;;;;;;;;5088750;28;20020;-86
2022/09/04 08:29:10;;;;;;;2.77;1.63;;;;;;;;;;5070326;28;20085;-87
2022/09/04 08:31:41;;;;;;;3.42;1.83;;;;;;;;;;5089115;28;20258;-88
2022/09/04 08:34:26;;;;;;;4.55;1.73;;;;;;;;;;5088341;28;20082;-87
2022/09/04 08:37:00;;;;;;;3.25;1.88;;;;;;;;;;5070356;28;20115;-88
2022/09/04 08:39:31;;;;;;;2.67;2.03;;;;;;;;;;5070902;28;20557;-86
2022/09/04 08:42:04;;;;;;;6.18;2.33;;;;;;;;;;5088610;28;20039;-86
2022/09/04 08:44:29;;;;;;;2.00;1.80;;;;;;;;;;5070822;28;20384;-89
2022/09/04 08:47:07;;;;;;;3.00;1.50;;;;;;;;;;5087915;28;20022;-86
2022/09/04 08:49:52;;;;;;;5.05;2.13;;;;;;;;;;5088896;28;20035;-86
2022/09/04 08:52:30;;;;;;;3.90;2.05;;;;;;;;;;5088412;28;20024;-88
2022/09/04 08:55:14;;;;;;;1.70;1.20;;;;;;;;;;5070496;28;20490;-86
2022/09/04 08:57:55;;;;;;;3.42;1.90;;;;;;;;;;5070360;28;20056;-86
2022/09/04 09:00:21;;;;;;;2.45;1.50;;;;;;;;;;5088790;28;20028;-87
2022/09/04 09:03:04;;;;;;;5.43;2.25;;;;;;;;;;5070549;28;20020;-89
2022/09/04 09:05:38;;;;;;;5.68;2.20;;;;;;;;;;5088109;28;20058;-86
2022/09/04 09:08:13;;;;;;;6.40;2.00;;;;;;;;;;5070370;28;20068;-86
2022/09/04 09:11:02;;;;;;;3.72;2.20;;;;;;;;;;5071245;28;20426;-85
2022/09/04 09:13:27;;;;;;;4.15;1.58;;;;;;;;;;5088894;28;20032;-86
2022/09/04 09:15:52;;;;;;;1.83;1.48;;;;;;;;;;5070189;28;20116;-86
2022/09/04 09:18:37;;;;;;;5.20;1.27;;;;;;;;;;5069849;28;20036;-86
2022/09/04 09:21:07;;;;;;;3.28;1.60;;;;;;;;;;5070194;28;20052;-87
2022/09/04 09:23:46;;;;;;;2.67;1.67;;;;;;;;;;5070128;28;20022;-88
2022/09/04 09:26:17;;;;;;;5.15;2.15;;;;;;;;;;5087676;28;20094;-86
2022/09/04 09:28:56;;;;;;;7.38;2.08;;;;;;;;;;5088300;28;20487;-87
2022/09/04 09:31:25;;;;;;;2.22;1.85;;;;;;;;;;5088065;28;20102;-87
2022/09/04 09:33:59;;;;;;;3.53;1.83;;;;;;;;;;5088299;28;20024;-85
2022/09/04 09:36:35;;;;;;;7.30;2.10;;;;;;;;;;5088132;28;20042;-87
2022/09/04 09:39:15;;;;;;;5.05;2.13;;;;;;;;;;5088188;28;20023;-86
2022/09/04 09:41:52;;;;;;;4.00;1.70;;;;;;;;;;5088314;28;20016;-86
2022/09/04 09:44:26;;;;;;;5.32;2.17;;;;;;;;;;5087944;28;20027;-85
2022/09/04 09:47:23;;;;;;;3.83;1.95;;;;;;;;;;5069668;28;20020;-86
2022/09/04 09:50:02;;;;;;;6.03;2.08;;;;;;;;;;5032200;28;20036;-86
2022/09/04 09:52:42;;;;;;;4.82;1.60;;;;;;;;;;5088228;28;20364;-86
2022/09/04 09:55:27;;;;;;;9.07;1.52;;;;;;;;;;5069723;28;20023;-92
2022/09/04 09:58:07;;;;;;;6.53;1.80;;;;;;;;;;5070462;28;20028;-87
2022/09/04 10:00:51;;;;;;;3.50;1.90;;;;;;;;;;5074156;28;20020;-86
2022/09/04 10:03:25;;;;;;;7.15;1.73;;;;;;;;;;5073288;28;20020;-86
2022/09/04 10:05:59;;;;;;;5.30;2.00;;;;;;;;;;5073148;28;20526;-85
2022/09/04 10:08:43;;;;;;;2.20;1.63;;;;;;;;;;5091837;28;20052;-86
2022/09/04 10:11:32;;;;;;;2.83;1.58;;;;;;;;;;5091497;28;20028;-85
2022/09/04 10:14:27;;;;;;;4.20;2.00;;;;;;;;;;5059664;28;20119;-85
2022/09/04 10:16:53;;;;;;;5.15;2.10;;;;;;;;;;5073113;28;20135;-86
2022/09/04 10:19:37;;;;;;;3.95;2.13;;;;;;;;;;5091293;28;20135;-85
2022/09/04 10:22:21;;;;;;;3.95;1.50;;;;;;;;;;5073137;28;20023;-87
2022/09/04 10:24:53;;;;;;;2.88;1.55;;;;;;;;;;5091496;28;20061;-86
2022/09/04 10:27:37;;;;;;;5.20;1.70;;;;;;;;;;5072600;28;20467;-85
2022/09/04 10:30:12;;;;;;;5.38;1.98;;;;;;;;;;5072895;28;20023;-86
2022/09/04 10:32:43;;;;;;;4.18;1.92;;;;;;;;;;5091093;28;20068;-85
2022/09/04 10:35:14;;;;;;;4.13;1.90;;;;;;;;;;5090774;28;20050;-90
2022/09/04 10:37:49;;;;;;;2.38;1.75;;;;;;;;;;5073129;28;20020;-86
2022/09/04 10:40:37;;;;;;;6.28;2.22;;;;;;;;;;5072762;28;20058;-86
2022/09/04 10:43:09;;;;;;;3.15;2.08;;;;;;;;;;5091345;28;20020;-89
2022/09/04 10:45:40;;;;;;;3.00;1.48;;;;;;;;;;5090507;28;20047;-86
2022/09/04 10:48:14;;;;;;;4.88;1.80;;;;;;;;;;5091140;28;20044;-87
2022/09/04 10:50:45;;;;;;;5.32;1.50;;;;;;;;;;5073211;28;20029;-85
2022/09/04 10:53:31;;;;;;;4.93;1.63;;;;;;;;;;5072530;28;20507;-86
2022/09/04 10:56:03;;;;;;;3.50;2.20;;;;;;;;;;5089936;28;20400;-86
2022/09/04 10:58:38;;;;;;;4.03;2.65;;;;;;;;;;5090579;28;20592;-86
2022/09/04 11:01:07;;;;;;;6.47;1.83;;;;;;;;;;5072544;28;20103;-85
2022/09/04 11:03:42;;;;;;;2.33;1.23;;;;;;;;;;5072335;28;20150;-88
2022/09/04 11:06:25;;;;;;;1.77;1.40;;;;;;;;;;5089811;28;20077;-85
2022/09/04 11:08:53;;;;;;;3.08;1.85;;;;;;;;;;5094192;28;20533;-88
2022/09/04 11:11:24;;;;;;;3.67;1.73;;;;;;;;;;5088990;28;20035;-86
2022/09/04 11:14:08;;;;;;;5.43;2.20;;;;;;;;;;5090470;28;20020;-88
2022/09/04 11:16:36;;;;;;;3.20;1.63;;;;;;;;;;5089683;28;20062;-89
2022/09/04 11:19:21;;;;;;;4.43;1.35;;;;;;;;;;5071778;28;20069;-87
2022/09/04 11:21:54;;;;;;;3.80;1.40;;;;;;;;;;5071368;28;20039;-86
2022/09/04 11:24:40;;;;;;;3.05;1.60;;;;;;;;;;5072050;28;20119;-89
2022/09/04 11:27:21;;;;;;;4.15;1.67;;;;;;;;;;5089738;28;20096;-85
2022/09/04 11:29:54;;;;;;;5.13;1.95;;;;;;;;;;5090340;28;20488;-88
2022/09/04 11:32:25;;;;;;;2.30;1.60;;;;;;;;;;5090452;28;20024;-86
2022/09/04 11:34:54;;;;;;;4.47;1.98;;;;;;;;;;5091295;28;20035;-90
2022/09/04 11:37:37;;;;;;;7.60;1.75;;;;;;;;;;5092737;28;20008;-87
2022/09/04 11:40:03;;;;;;;4.18;1.67;;;;;;;;;;5091631;28;20016;-90
2022/09/04 11:42:49;;;;;;;4.55;1.65;;;;;;;;;;5078074;28;20613;-85
2022/09/04 11:45:19;;;;;;;5.10;1.80;;;;;;;;;;5092070;28;20413;-87
2022/09/04 11:48:03;;;;;;;5.13;1.73;;;;;;;;;;5090534;28;20016;-85
2022/09/04 11:50:41;;;;;;;6.45;1.45;;;;;;;;;;5090147;28;20024;-88
2022/09/04 11:53:25;;;;;;;5.22;1.83;;;;;;;;;;5071784;28;20483;-86
2022/09/04 11:56:09;;;;;;;2.95;1.88;;;;;;;;;;5070979;28;20438;-85
2022/09/04 11:58:53;;;;;;;3.97;1.90;;;;;;;;;;5090017;28;20023;-85
2022/09/04 12:01:21;;;;;;;3.35;1.65;;;;;;;;;;5071391;28;20031;-85
2022/09/04 12:04:05;;;;;;;4.65;2.00;;;;;;;;;;5090474;28;20016;-88
2022/09/04 12:06:50;;;;;;;3.38;2.35;;;;;;;;;;5073488;28;20066;-88
2022/09/04 12:09:24;;;;;;;4.20;1.88;;;;;;;;;;5071764;28;20024;-85
2022/09/04 12:12:10;;;;;;;5.95;2.67;;;;;;;;;;5071550;28;20020;-87
2022/09/04 12:14:41;;;;;;;4.78;1.98;;;;;;;;;;5089585;28;20095;-85
2022/09/04 12:17:26;;;;;;;3.17;1.73;;;;;;;;;;5089143;28;20076;-86
2022/09/04 12:19:51;;;;;;;8.80;2.70;;;;;;;;;;5089144;28;20027;-85
2022/09/04 12:22:30;;;;;;;4.10;1.90;;;;;;;;;;5089064;28;20024;-87
2022/09/04 12:25:01;;;;;;;4.55;2.40;;;;;;;;;;5071035;28;20834;-85
2022/09/04 12:27:44;;;;;;;3.95;2.20;;;;;;;;;;5088565;28;20021;-87
2022/09/04 12:30:43;;;;;;;2.65;1.55;;;;;;;;;;5069721;28;20024;-85
2022/09/04 12:33:18;;;;;;;3.78;1.58;;;;;;;;;;5043451;28;20055;-85
2022/09/04 12:35:59;;;;;;;2.05;1.33;;;;;;;;;;5088819;28;20016;-86
2022/09/04 12:38:27;;;;;;;3.30;1.50;;;;;;;;;;5089150;28;20078;-88
2022/09/04 12:41:09;;;;;;;3.80;1.77;;;;;;;;;;5089257;28;20510;-88
2022/09/04 12:43:49;;;;;;;4.47;1.60;;;;;;;;;;5088767;28;20055;-86
2022/09/04 12:46:15;;;;;;;3.30;1.70;;;;;;;;;;5088165;28;20617;-88
2022/09/04 12:48:40;;;;;;;7.35;2.00;;;;;;;;;;5071037;28;20107;-86
2022/09/04 12:51:10;;;;;;;3.30;1.60;;;;;;;;;;5070133;28;20024;-86
2022/09/04 12:53:49;;;;;;;10.27;1.88;;;;;;;;;;5089020;28;20164;-85
2022/09/04 12:56:39;;;;;;;2.53;1.55;;;;;;;;;;5088869;28;20640;-88
2022/09/04 12:59:06;;;;;;;;;;;;;;;;;;5071159;28;20031;-86
2022/09/04 13:01:50;;;;;;;3.85;1.77;;;;;;;;;;5070872;28;19904;-88
2022/09/04 13:04:34;;;;;;;7.70;1.90;;;;;;;;;;5070341;28;20031;-88
2022/09/04 13:07:00;;;;;;;2.75;1.55;;;;;;;;;;5088312;28;20020;-86
2022/09/04 13:09:25;;;;;;;7.95;1.73;;;;;;;;;;5088861;28;20019;-89
2022/09/04 13:11:50;;;;;;;3.83;1.57;;;;;;;;;;5070791;28;20016;-87
2022/09/04 13:14:25;;;;;;;3.70;1.48;;;;;;;;;;5070816;28;20031;-87
2022/09/04 13:16:59;;;;;;;2.63;1.45;;;;;;;;;;5070315;28;20016;-86
2022/09/04 13:19:43;;;;;;;5.15;1.60;;;;;;;;;;5070737;28;20067;-88
2022/09/04 13:22:19;;;;;;;2.67;1.33;;;;;;;;;;5088415;28;20398;-85
2022/09/04 13:24:50;;;;;;;5.03;1.92;;;;;;;;;;5089075;28;20016;-87
2022/09/04 13:27:27;;;;;;;2.55;1.27;;;;;;;;;;5070292;28;20451;-88
2022/09/04 13:30:07;;;;;;;2.38;1.60;;;;;;;;;;5076073;28;20476;-85
2022/09/04 13:32:51;;;;;;;4.03;1.95;;;;;;;;;;5090640;28;20032;-85
2022/09/04 13:35:30;;;;;;;3.05;1.55;;;;;;;;;;5073060;28;20106;-88
2022/09/04 13:38:04;;;;;;;2.30;1.47;;;;;;;;;;5092768;28;20016;-85
2022/09/04 13:40:32;;;;;;;5.50;1.23;;;;;;;;;;5074147;28;20251;-85
2022/09/04 13:43:09;;;;;;;4.43;1.63;;;;;;;;;;5092323;28;20024;-87
2022/09/04 13:45:39;;;;;;;4.57;1.90;;;;;;;;;;5074101;28;20052;-85
2022/09/04 13:48:08;;;;;;;4.38;1.55;;;;;;;;;;5073746;28;20404;-85
2022/09/04 13:50:36;;;;;;;3.53;1.40;;;;;;;;;;5092476;28;20012;-87
2022/09/04 13:53:20;;;;;;;2.72;1.20;;;;;;;;;;5073740;28;20100;-86
2022/09/04 13:55:49;;;;;;;3.67;1.17;;;;;;;;;;5091853;28;20065;-86
2022/09/04 13:58:19;;;;;;;2.92;1.30;;;;;;;;;;5091902;28;20016;-86
2022/09/04 14:00:51;;;;;;;2.25;1.35;;;;;;;;;;5073824;28;20019;-87
2022/09/04 14:03:47;;;;;;;4.22;1.58;;;;;;;;;;5073646;28;20028;-85
2022/09/04 14:06:14;;;;;;;3.50;1.42;;;;;;;;;;5073472;28;20066;-86
2022/09/04 14:08:41;;;;;;;2.35;1.33;;;;;;;;;;5073626;28;20507;-85
2022/09/04 14:11:26;;;;;;;2.70;1.23;;;;;;;;;;5073647;28;20072;-87
2022/09/04 14:14:10;;;;;;;3.15;1.50;;;;;;;;;;5073903;28;20047;-86
2022/09/04 14:16:40;;;;;;;3.90;1.45;;;;;;;;;;5091799;28;20085;-88
2022/09/04 14:19:17;;;;;;;3.55;1.45;;;;;;;;;;5073005;28;20024;-87
2022/09/04 14:21:54;;;;;;;2.60;1.60;;;;;;;;;;5073484;28;20028;-85
2022/09/04 14:24:22;;;;;;;3.20;1.52;;;;;;;;;;5072736;28;20027;-85
2022/09/04 14:27:08;;;;;;;3.90;1.60;;;;;;;;;;5091297;28;20511;-85
2022/09/04 14:29:49;;;;;;;3.70;1.60;;;;;;;;;;5075038;28;20028;-85
2022/09/04 14:32:17;;;;;;;2.88;1.17;;;;;;;;;;5073185;28;20059;-88
2022/09/04 14:34:54;;;;;;;4.28;1.33;;;;;;;;;;5073551;28;20030;-88
2022/09/04 14:37:29;;;;;;;2.28;1.50;;;;;;;;;;5072858;28;20008;-86
2022/09/04 14:40:03;;;;;;;5.80;1.63;;;;;;;;;;5092119;28;20016;-85
2022/09/04 14:42:55;;;;;;;2.55;1.35;;;;;;;;;;5073254;28;20034;-86
2022/09/04 14:45:32;;;;;;;1.90;1.23;;;;;;;;;;5090407;28;20101;-86
2022/09/04 14:48:03;;;;;;;4.38;1.23;;;;;;;;;;5090931;28;20012;-86
2022/09/04 14:50:30;;;;;;;3.78;1.20;;;;;;;;;;5091131;28;20537;-86
2022/09/04 14:52:55;;;;;;;2.70;1.30;;;;;;;;;;5090971;28;20392;-88
2022/09/04 14:55:25;;;;;;;3.17;1.25;;;;;;;;;;5072229;28;20016;-86
2022/09/04 14:57:54;;;;;;;3.20;1.20;;;;;;;;;;5072809;28;20024;-86
2022/09/04 15:00:19;;;;;;;2.83;1.23;;;;;;;;;;5090714;28;20157;-86
2022/09/04 15:03:03;;;;;;;6.75;1.20;;;;;;;;;;5072596;28;20106;-86
2022/09/04 15:05:53;;;;;;;4.60;1.40;;;;;;;;;;5072208;28;20020;-85
2022/09/04 15:08:26;;;;;;;4.05;1.23;;;;;;;;;;5090445;28;20012;-87
2022/09/04 15:10:56;;;;;;;3.05;1.10;;;;;;;;;;5091304;28;20487;-87
2022/09/04 15:13:21;;;;;;;;;;;;;;;;;;5091137;28;20063;-86
2022/09/04 15:16:05;;;;;;;1.50;1.00;;;;;;;;;;5072837;28;20360;-88
2022/09/04 15:18:30;;;;;;;3.28;1.20;;;;;;;;;;5072248;28;20496;-88
2022/09/04 15:20:55;;;;;;;3.60;1.30;;;;;;;;;;5091063;28;20058;-85
2022/09/04 15:23:30;;;;;;;2.17;1.20;;;;;;;;;;5092045;28;20357;-88
2022/09/04 15:26:04;;;;;;;3.95;1.45;;;;;;;;;;5089992;28;20020;-86
2022/09/04 15:28:37;;;;;;;1.60;1.15;;;;;;;;;;5090881;28;20023;-86
2022/09/04 15:31:16;;;;;;;2.28;0.98;;;;;;;;;;5072304;28;20210;-85
2022/09/04 15:33:42;;;;;;;2.75;1.15;;;;;;;;;;5090245;28;20024;-88
2022/09/04 15:36:09;;;;;;;3.22;1.25;;;;;;;;;;5089874;28;20020;-87